createdAt,value
2022-09-10T00:00:44.434Z,101057.59
2022-09-10T00:05:51.486Z,101038.28
2022-09-10T00:11:05.128Z,101034.97
2022-09-10T00:16:11.092Z,101032.47
2022-09-10T00:21:17.499Z,101037.47
2022-09-10T00:26:29.318Z,101039.53
2022-09-10T00:31:34.739Z,101041.19
2022-09-10T00:36:43.897Z,101041.63
2022-09-10T00:41:48.079Z,101048.25
2022-09-10T00:46:51.605Z,101041.19
2022-09-10T00:51:54.422Z,101049.50
2022-09-10T00:57:02.556Z,101040.78
2022-09-10T01:02:07.258Z,101047.41
2022-09-10T01:07:29.299Z,101047.63
2022-09-10T01:12:49.359Z,101045.75
2022-09-10T01:18:22.266Z,101040.38
2022-09-10T01:23:39.687Z,101043.06
2022-09-10T01:29:14.880Z,101047.41
2022-09-10T01:34:22.421Z,101054.47
2022-09-10T01:39:27.446Z,101049.06
2022-09-10T01:44:48.399Z,101052.78
2022-09-10T01:50:19.443Z,101055.47
2022-09-10T01:55:30.058Z,101055.72
2022-09-10T02:00:36.959Z,101058.59
2022-09-10T02:05:42.248Z,101059.66
2022-09-10T02:10:52.825Z,101063.38
2022-09-10T02:15:59.911Z,101068.13
2022-09-10T02:21:09.166Z,101069.78
2022-09-10T02:26:12.062Z,101064.41
2022-09-10T02:31:16.299Z,101070.00
2022-09-10T02:36:21.080Z,101067.94
2022-09-10T02:41:26.189Z,101073.31
2022-09-10T02:46:32.830Z,101070.00
2022-09-10T02:51:38.873Z,101082.63
2022-09-10T02:56:43.304Z,101082.63
2022-09-10T03:01:48.351Z,101079.72
2022-09-10T03:06:53.521Z,101074.13
2022-09-10T03:12:00.374Z,101073.94
2022-09-10T03:17:03.119Z,101066.25
2022-09-10T03:22:07.186Z,101064.41
2022-09-10T03:27:12.144Z,101067.09
2022-09-10T03:32:14.425Z,101065.63
2022-09-10T03:37:16.910Z,101057.78
2022-09-10T03:42:23.455Z,101056.31
2022-09-10T03:47:27.761Z,101060.84
2022-09-10T03:52:32.768Z,101065.41
2022-09-10T03:57:34.617Z,101067.28
2022-09-10T04:02:37.231Z,101066.63
2022-09-10T04:07:39.427Z,101065.19
2022-09-10T04:12:41.219Z,101072.44
2022-09-10T04:17:54.997Z,101073.25
2022-09-10T04:23:02.991Z,101087.34
2022-09-10T04:28:11.724Z,101080.28
2022-09-10T04:33:19.872Z,101084.03
2022-09-10T04:38:23.512Z,101089.63
2022-09-10T04:43:29.412Z,101100.59
2022-09-10T04:48:37.131Z,101107.84
2022-09-10T04:53:40.828Z,101094.78
2022-09-10T04:58:46.796Z,101094.16
2022-09-10T05:03:51.677Z,101103.69
2022-09-10T05:08:58.944Z,101105.94
2022-09-10T05:14:07.872Z,101105.31
2022-09-10T05:19:17.650Z,101107.81
2022-09-10T05:24:35.762Z,101103.03
2022-09-10T05:29:45.431Z,101104.13
2022-09-10T05:34:48.921Z,101105.16
2022-09-10T05:39:51.190Z,101114.28
2022-09-10T05:44:54.375Z,101123.44
2022-09-10T05:50:02.613Z,101122.00
2022-09-10T05:55:11.373Z,101120.56
2022-09-10T06:00:15.761Z,101129.69
2022-09-10T06:05:25.075Z,101134.25
2022-09-10T06:10:30.639Z,101131.56
2022-09-10T06:15:35.481Z,101140.91
2022-09-10T06:20:37.640Z,101145.91
2022-09-10T06:25:41.799Z,101151.06
2022-09-10T06:30:46.601Z,101149.00
2022-09-10T06:35:55.750Z,101152.94
2022-09-10T06:41:04.872Z,101159.59
2022-09-10T06:46:51.189Z,101157.94
2022-09-10T06:51:45.708Z,101167.91
2022-09-10T06:56:49.406Z,101168.53
2022-09-10T07:01:51.585Z,101178.69
2022-09-10T07:06:57.794Z,101190.09
2022-09-10T07:12:09.480Z,101182.41
2022-09-10T07:17:21.071Z,101185.53
2022-09-10T07:22:25.988Z,101191.13
2022-09-10T07:27:30.192Z,101197.34
2022-09-10T07:32:36.724Z,101199.44
2022-09-10T07:37:49.037Z,101204.22
2022-09-10T07:42:52.479Z,101210.44
2022-09-10T07:47:56.269Z,101220.59
2022-09-10T07:53:01.433Z,101219.97
2022-09-10T07:58:08.233Z,101226.84
2022-09-10T08:03:18.267Z,101229.94
2022-09-10T08:08:27.301Z,101233.69
2022-09-10T08:13:35.309Z,101230.75
2022-09-10T08:18:38.634Z,101237.19
2022-09-10T08:23:54.015Z,101249.84
2022-09-10T08:28:58.630Z,101265.22
2022-09-10T08:34:06.627Z,101263.53
2022-09-10T08:39:15.380Z,101269.72
2022-09-10T08:44:40.146Z,101273.88
2022-09-10T08:49:44.966Z,101285.50
2022-09-10T08:55:02.656Z,101293.38
2022-09-10T09:00:10.392Z,101296.25
2022-09-10T09:05:20.180Z,101297.91
2022-09-10T09:10:24.813Z,101301.19
2022-09-10T09:15:33.587Z,101304.22
2022-09-10T09:20:57.298Z,101300.78
2022-09-10T09:26:10.972Z,101305.78
2022-09-10T09:31:18.391Z,101312.03
2022-09-10T09:36:31.177Z,101314.06
2022-09-10T09:41:55.814Z,101319.13
2022-09-10T09:47:00.544Z,101320.03
2022-09-10T09:52:19.707Z,101313.31
2022-09-10T09:57:22.748Z,101314.75
2022-09-10T10:02:30.460Z,101319.34
2022-09-10T10:07:38.669Z,101318.13
2022-09-10T10:12:43.118Z,101310.09
2022-09-10T10:17:47.284Z,101313.03
2022-09-10T10:22:54.191Z,101312.44
2022-09-10T10:28:03.542Z,101301.81
2022-09-10T10:33:05.287Z,101309.69
2022-09-10T10:38:34.395Z,101308.09
2022-09-10T10:44:23.498Z,101310.72
2022-09-10T10:49:47.280Z,101319.38
2022-09-10T10:55:03.906Z,101307.53
2022-09-10T11:00:13.408Z,101299.78
2022-09-10T11:05:25.765Z,101315.59
2022-09-10T11:10:47.965Z,101304.66
2022-09-10T11:15:53.711Z,101302.69
2022-09-10T11:21:37.617Z,101299.88
2022-09-10T11:26:54.734Z,101295.47
2022-09-10T11:32:00.799Z,101300.91
2022-09-10T11:37:05.617Z,101301.41
2022-09-10T11:42:19.719Z,101299.34
2022-09-10T11:47:31.384Z,101292.75
2022-09-10T11:52:35.173Z,101282.63
2022-09-10T11:57:55.770Z,101292.94
2022-09-10T12:03:25.701Z,101277.22
2022-09-10T12:09:03.530Z,101288.31
2022-09-10T12:14:15.093Z,101284.63
2022-09-10T12:19:40.671Z,101292.69
2022-09-10T12:25:00.755Z,101303.75
2022-09-10T12:30:25.464Z,101300.72
2022-09-10T12:35:35.467Z,101311.00
2022-09-10T12:40:49.718Z,101316.97
2022-09-10T12:46:06.284Z,101310.94
2022-09-10T12:51:23.646Z,101312.34
2022-09-10T12:56:40.028Z,101321.53
2022-09-10T13:01:48.998Z,101326.78
2022-09-10T13:06:59.412Z,101325.47
2022-09-10T13:12:14.897Z,101324.75
2022-09-10T13:17:35.503Z,101333.06
2022-09-10T13:22:55.368Z,101333.84
2022-09-10T13:28:28.533Z,101337.94
2022-09-10T13:33:37.028Z,101329.19
2022-09-10T13:39:16.633Z,101328.13
2022-09-10T13:44:39.916Z,101330.41
2022-09-10T13:49:55.716Z,101331.06
2022-09-10T13:55:01.417Z,101338.47
2022-09-10T14:00:08.519Z,101341.13
2022-09-10T14:05:31.040Z,101334.13
2022-09-10T14:10:48.664Z,101344.25
2022-09-10T14:15:55.256Z,101351.78
2022-09-10T14:21:04.791Z,101345.06
2022-09-10T14:26:15.256Z,101348.94
2022-09-10T14:31:30.034Z,101345.69
2022-09-10T14:36:34.356Z,101351.97
2022-09-10T14:41:36.363Z,101344.25
2022-09-10T14:47:05.677Z,101345.84
2022-09-10T14:52:08.091Z,101355.28
2022-09-10T14:57:15.390Z,101362.38
2022-09-10T15:02:20.157Z,101367.56
2022-09-10T15:07:23.750Z,101374.41
2022-09-10T15:12:28.090Z,101378.38
2022-09-10T15:17:36.144Z,101376.09
2022-09-10T15:22:40.102Z,101382.84
2022-09-10T15:27:47.182Z,101371.75
2022-09-10T15:32:54.439Z,101383.41
2022-09-10T15:37:56.528Z,101382.50
2022-09-10T15:43:00.349Z,101390.66
2022-09-10T15:48:03.692Z,101384.47
2022-09-10T15:53:09.300Z,101392.34
2022-09-10T15:58:16.476Z,101389.75
2022-09-10T16:03:18.552Z,101381.81
2022-09-10T16:08:20.269Z,101375.41
2022-09-10T16:13:22.224Z,101372.47
2022-09-10T16:18:24.211Z,101376.22
2022-09-10T16:23:31.294Z,101380.78
2022-09-10T16:28:38.657Z,101379.22
2022-09-10T16:33:43.420Z,101388.41
2022-09-10T16:38:55.151Z,101397.59
2022-09-10T16:44:00.557Z,101405.78
2022-09-10T16:49:02.693Z,101411.03
2022-09-10T16:54:10.009Z,101416.66
2022-09-10T16:59:17.820Z,101424.63
2022-09-10T17:04:28.784Z,101427.97
2022-09-10T17:09:30.980Z,101433.09
2022-09-10T17:14:33.319Z,101440.44
2022-09-10T17:19:34.957Z,101450.66
2022-09-10T17:24:36.682Z,101451.84
2022-09-10T17:29:38.618Z,101454.34
2022-09-10T17:34:40.326Z,101456.06
2022-09-10T17:39:42.119Z,101465.47
2022-09-10T17:44:47.150Z,101467.31
2022-09-10T17:49:52.120Z,101479.16
2022-09-10T17:54:54.011Z,101477.00
2022-09-10T17:59:58.222Z,101479.16
2022-09-10T18:05:00.727Z,101490.31
2022-09-10T18:10:09.943Z,101494.50
2022-09-10T18:15:11.743Z,101494.88
2022-09-10T18:20:18.051Z,101490.44
2022-09-10T18:25:25.902Z,101502.06
2022-09-10T18:30:32.518Z,101509.44
2022-09-10T18:35:36.753Z,101519.75
2022-09-10T18:40:43.344Z,101518.56
2022-09-10T18:45:46.085Z,101528.88
2022-09-10T18:50:50.771Z,101531.41
2022-09-10T18:56:00.047Z,101539.47
2022-09-10T19:01:11.185Z,101549.53
2022-09-10T19:06:20.783Z,101536.66
2022-09-10T19:11:24.515Z,101539.72
2022-09-10T19:16:30.915Z,101544.81
2022-09-10T19:21:35.432Z,101548.25
2022-09-10T19:26:37.408Z,101562.44
2022-09-10T19:31:47.104Z,101562.06
2022-09-10T19:36:52.015Z,101551.06
2022-09-10T19:41:56.759Z,101568.81
2022-09-10T19:46:58.865Z,101564.44
2022-09-10T19:52:04.368Z,101572.81
2022-09-10T19:57:08.580Z,101573.88
2022-09-10T20:02:12.934Z,101584.09
2022-09-10T20:07:15.267Z,101593.06
2022-09-10T20:12:22.665Z,101594.75
2022-09-10T20:17:26.676Z,101598.31
2022-09-10T20:22:30.982Z,101592.69
2022-09-10T20:27:35.648Z,101603.34
2022-09-10T20:32:37.390Z,101598.56
2022-09-10T20:37:39.214Z,101605.88
2022-09-10T20:42:41.284Z,101606.91
2022-09-10T20:47:45.246Z,101600.66
2022-09-10T20:52:50.655Z,101611.06
2022-09-10T20:57:54.686Z,101606.91
2022-09-10T21:02:59.900Z,101604.19
2022-09-10T21:08:03.682Z,101608.78
2022-09-10T21:13:05.398Z,101617.28
2022-09-10T21:18:09.607Z,101618.13
2022-09-10T21:23:11.286Z,101625.16
2022-09-10T21:28:12.933Z,101622.44
2022-09-10T21:33:17.405Z,101627.84
2022-09-10T21:38:21.844Z,101633.88
2022-09-10T21:43:29.535Z,101632.16
2022-09-10T21:48:36.241Z,101637.56
2022-09-10T21:53:41.600Z,101635.88
2022-09-10T21:58:45.010Z,101635.25
2022-09-10T22:03:47.445Z,101640.41
2022-09-10T22:08:54.969Z,101631.25
2022-09-10T22:14:02.829Z,101639.50
2022-09-10T22:19:09.528Z,101645.34
2022-09-10T22:24:14.954Z,101662.97
2022-09-10T22:29:18.624Z,101660.88
2022-09-10T22:34:23.104Z,101666.84
2022-09-10T22:39:25.548Z,101659.75
2022-09-10T22:44:31.849Z,101675.72
2022-09-10T22:49:34.285Z,101679.19
2022-09-10T22:54:36.058Z,101690.75
2022-09-10T22:59:40.421Z,101687.41
2022-09-10T23:04:44.524Z,101681.56
2022-09-10T23:09:48.205Z,101686.09
2022-09-10T23:14:49.917Z,101688.91
2022-09-10T23:19:52.307Z,101692.22
2022-09-10T23:24:54.008Z,101696.09
2022-09-10T23:29:56.689Z,101704.13
2022-09-10T23:35:01.428Z,101701.19
2022-09-10T23:40:11.916Z,101709.00
2022-09-10T23:45:16.170Z,101711.69
2022-09-10T23:50:19.883Z,101709.56
2022-09-10T23:55:21.592Z,101715.94
